sensor_id;sensor_type;location;lat;lon;timestamp;temperature;humidity
66140;DHT22;52945;51.908;8.364;2024-02-23T00:02:48;10.50;58.70
66140;DHT22;52945;51.908;8.364;2024-02-23T00:05:49;10.50;58.40
66140;DHT22;52945;51.908;8.364;2024-02-23T00:08:50;10.50;59.20
66140;DHT22;52945;51.908;8.364;2024-02-23T00:11:50;10.30;59.60
66140;DHT22;52945;51.908;8.364;2024-02-23T00:14:51;10.40;60.50
66140;DHT22;52945;51.908;8.364;2024-02-23T00:17:51;10.20;61.20
66140;DHT22;52945;51.908;8.364;2024-02-23T00:20:52;10.20;61.40
66140;DHT22;52945;51.908;8.364;2024-02-23T00:23:52;10.10;61.50
66140;DHT22;52945;51.908;8.364;2024-02-23T00:26:53;10.00;61.50
66140;DHT22;52945;51.908;8.364;2024-02-23T00:29:55;9.90;62.00
66140;DHT22;52945;51.908;8.364;2024-02-23T00:32:56;9.80;62.70
66140;DHT22;52945;51.908;8.364;2024-02-23T00:35:56;9.80;63.50
66140;DHT22;52945;51.908;8.364;2024-02-23T00:38:57;9.70;64.30
66140;DHT22;52945;51.908;8.364;2024-02-23T00:41:58;9.70;65.00
66140;DHT22;52945;51.908;8.364;2024-02-23T00:44:58;9.50;65.30
66140;DHT22;52945;51.908;8.364;2024-02-23T00:47:59;9.60;65.40
66140;DHT22;52945;51.908;8.364;2024-02-23T00:51:03;9.40;65.40
66140;DHT22;52945;51.908;8.364;2024-02-23T00:54:04;9.30;66.20
66140;DHT22;52945;51.908;8.364;2024-02-23T00:57:04;9.40;66.20
66140;DHT22;52945;51.908;8.364;2024-02-23T01:00:06;9.20;66.10
66140;DHT22;52945;51.908;8.364;2024-02-23T01:03:06;9.20;66.70
66140;DHT22;52945;51.908;8.364;2024-02-23T01:06:07;9.10;67.20
66140;DHT22;52945;51.908;8.364;2024-02-23T01:09:07;9.00;66.70
66140;DHT22;52945;51.908;8.364;2024-02-23T01:12:08;9.00;66.80
66140;DHT22;52945;51.908;8.364;2024-02-23T01:15:09;8.80;66.80
66140;DHT22;52945;51.908;8.364;2024-02-23T01:18:09;8.70;67.20
66140;DHT22;52945;51.908;8.364;2024-02-23T01:21:10;8.70;67.80
66140;DHT22;52945;51.908;8.364;2024-02-23T01:24:12;8.70;67.90
66140;DHT22;52945;51.908;8.364;2024-02-23T01:27:12;8.70;68.20
66140;DHT22;52945;51.908;8.364;2024-02-23T01:30:13;8.60;67.70
66140;DHT22;52945;51.908;8.364;2024-02-23T01:33:14;8.60;67.70
66140;DHT22;52945;51.908;8.364;2024-02-23T01:36:14;8.50;67.00
66140;DHT22;52945;51.908;8.364;2024-02-23T01:39:15;8.50;66.50
66140;DHT22;52945;51.908;8.364;2024-02-23T01:42:16;8.50;66.80
66140;DHT22;52945;51.908;8.364;2024-02-23T01:45:17;8.50;67.20
66140;DHT22;52945;51.908;8.364;2024-02-23T01:48:18;8.50;67.50
66140;DHT22;52945;51.908;8.364;2024-02-23T01:51:19;8.30;66.60
66140;DHT22;52945;51.908;8.364;2024-02-23T01:54:20;8.40;66.90
66140;DHT22;52945;51.908;8.364;2024-02-23T01:57:22;8.50;67.00
66140;DHT22;52945;51.908;8.364;2024-02-23T02:00:23;8.40;66.60
66140;DHT22;52945;51.908;8.364;2024-02-23T02:03:24;8.30;66.20
66140;DHT22;52945;51.908;8.364;2024-02-23T02:06:25;8.40;66.40
66140;DHT22;52945;51.908;8.364;2024-02-23T02:09:26;8.40;66.30
66140;DHT22;52945;51.908;8.364;2024-02-23T02:12:27;8.40;66.20
66140;DHT22;52945;51.908;8.364;2024-02-23T02:15:28;8.30;66.30
66140;DHT22;52945;51.908;8.364;2024-02-23T02:18:28;8.30;66.50
66140;DHT22;52945;51.908;8.364;2024-02-23T02:21:29;8.30;66.40
66140;DHT22;52945;51.908;8.364;2024-02-23T02:24:29;8.30;66.50
66140;DHT22;52945;51.908;8.364;2024-02-23T02:27:30;8.20;66.60
66140;DHT22;52945;51.908;8.364;2024-02-23T02:30:33;8.20;66.60
66140;DHT22;52945;51.908;8.364;2024-02-23T02:33:34;8.20;66.60
66140;DHT22;52945;51.908;8.364;2024-02-23T02:36:34;8.20;66.20
66140;DHT22;52945;51.908;8.364;2024-02-23T02:39:35;8.20;65.50
66140;DHT22;52945;51.908;8.364;2024-02-23T02:42:36;8.20;65.30
66140;DHT22;52945;51.908;8.364;2024-02-23T02:45:37;8.20;64.90
66140;DHT22;52945;51.908;8.364;2024-02-23T02:48:37;8.20;65.00
66140;DHT22;52945;51.908;8.364;2024-02-23T02:51:38;8.20;65.00
66140;DHT22;52945;51.908;8.364;2024-02-23T02:54:39;8.20;64.90
66140;DHT22;52945;51.908;8.364;2024-02-23T02:57:40;8.20;65.10
66140;DHT22;52945;51.908;8.364;2024-02-23T03:00:40;8.10;64.70
66140;DHT22;52945;51.908;8.364;2024-02-23T03:03:41;8.20;65.00
66140;DHT22;52945;51.908;8.364;2024-02-23T03:06:41;8.20;64.90
66140;DHT22;52945;51.908;8.364;2024-02-23T03:09:42;8.20;64.60
66140;DHT22;52945;51.908;8.364;2024-02-23T03:12:43;8.20;64.60
66140;DHT22;52945;51.908;8.364;2024-02-23T03:15:43;8.10;64.80
66140;DHT22;52945;51.908;8.364;2024-02-23T03:18:44;8.10;64.80
66140;DHT22;52945;51.908;8.364;2024-02-23T03:21:45;8.20;65.20
66140;DHT22;52945;51.908;8.364;2024-02-23T03:24:45;8.20;65.20
66140;DHT22;52945;51.908;8.364;2024-02-23T03:27:46;8.30;65.10
66140;DHT22;52945;51.908;8.364;2024-02-23T03:30:46;8.40;65.00
66140;DHT22;52945;51.908;8.364;2024-02-23T03:33:47;8.40;64.50
66140;DHT22;52945;51.908;8.364;2024-02-23T03:36:47;8.30;64.20
66140;DHT22;52945;51.908;8.364;2024-02-23T03:39:48;8.30;63.70
66140;DHT22;52945;51.908;8.364;2024-02-23T03:42:49;8.30;63.80
66140;DHT22;52945;51.908;8.364;2024-02-23T03:45:50;8.30;63.40
66140;DHT22;52945;51.908;8.364;2024-02-23T03:48:50;8.30;63.50
66140;DHT22;52945;51.908;8.364;2024-02-23T03:51:52;8.30;64.00
66140;DHT22;52945;51.908;8.364;2024-02-23T03:54:52;8.30;63.00
66140;DHT22;52945;51.908;8.364;2024-02-23T03:57:55;8.30;62.70
66140;DHT22;52945;51.908;8.364;2024-02-23T04:00:55;8.30;62.20
66140;DHT22;52945;51.908;8.364;2024-02-23T04:03:57;8.20;62.40
66140;DHT22;52945;51.908;8.364;2024-02-23T04:06:58;8.30;62.80
66140;DHT22;52945;51.908;8.364;2024-02-23T04:10:00;8.30;62.50
66140;DHT22;52945;51.908;8.364;2024-02-23T04:13:01;8.30;62.10
66140;DHT22;52945;51.908;8.364;2024-02-23T04:16:02;8.30;62.00
66140;DHT22;52945;51.908;8.364;2024-02-23T04:19:03;8.30;61.90
66140;DHT22;52945;51.908;8.364;2024-02-23T04:22:05;8.20;61.90
66140;DHT22;52945;51.908;8.364;2024-02-23T04:25:09;8.30;62.00
66140;DHT22;52945;51.908;8.364;2024-02-23T04:28:09;8.30;61.70
66140;DHT22;52945;51.908;8.364;2024-02-23T04:31:10;8.20;61.90
66140;DHT22;52945;51.908;8.364;2024-02-23T04:34:11;8.20;62.10
66140;DHT22;52945;51.908;8.364;2024-02-23T04:37:11;8.20;62.50
66140;DHT22;52945;51.908;8.364;2024-02-23T04:40:12;8.20;62.30
66140;DHT22;52945;51.908;8.364;2024-02-23T04:43:13;8.10;62.10
66140;DHT22;52945;51.908;8.364;2024-02-23T04:46:14;8.20;62.30
66140;DHT22;52945;51.908;8.364;2024-02-23T04:49:15;8.20;62.30
66140;DHT22;52945;51.908;8.364;2024-02-23T04:52:16;8.10;62.70
66140;DHT22;52945;51.908;8.364;2024-02-23T04:55:16;8.20;62.90
66140;DHT22;52945;51.908;8.364;2024-02-23T04:58:17;8.20;62.80
66140;DHT22;52945;51.908;8.364;2024-02-23T05:01:19;8.20;62.80
66140;DHT22;52945;51.908;8.364;2024-02-23T05:04:20;8.20;62.80
66140;DHT22;52945;51.908;8.364;2024-02-23T05:07:20;8.20;62.70
66140;DHT22;52945;51.908;8.364;2024-02-23T05:10:21;8.20;62.90
66140;DHT22;52945;51.908;8.364;2024-02-23T05:13:23;8.20;63.00
66140;DHT22;52945;51.908;8.364;2024-02-23T05:16:23;8.20;63.00
66140;DHT22;52945;51.908;8.364;2024-02-23T05:19:24;8.20;63.20
66140;DHT22;52945;51.908;8.364;2024-02-23T05:22:25;8.20;63.40
66140;DHT22;52945;51.908;8.364;2024-02-23T05:25:25;8.20;63.40
66140;DHT22;52945;51.908;8.364;2024-02-23T05:28:26;8.10;63.20
66140;DHT22;52945;51.908;8.364;2024-02-23T05:31:49;8.10;63.30
66140;DHT22;52945;51.908;8.364;2024-02-23T05:34:50;8.20;63.40
66140;DHT22;52945;51.908;8.364;2024-02-23T05:37:53;8.10;63.20
66140;DHT22;52945;51.908;8.364;2024-02-23T05:40:56;8.10;63.30
66140;DHT22;52945;51.908;8.364;2024-02-23T05:43:57;8.10;63.40
66140;DHT22;52945;51.908;8.364;2024-02-23T05:46:57;8.20;63.30
66140;DHT22;52945;51.908;8.364;2024-02-23T05:49:58;8.20;63.10
66140;DHT22;52945;51.908;8.364;2024-02-23T05:52:59;8.10;62.80
66140;DHT22;52945;51.908;8.364;2024-02-23T05:55:59;8.20;62.80
66140;DHT22;52945;51.908;8.364;2024-02-23T05:59:00;8.20;62.60
66140;DHT22;52945;51.908;8.364;2024-02-23T06:02:00;8.20;62.50
66140;DHT22;52945;51.908;8.364;2024-02-23T06:05:01;8.20;62.60
66140;DHT22;52945;51.908;8.364;2024-02-23T06:08:02;8.10;62.10
66140;DHT22;52945;51.908;8.364;2024-02-23T06:11:03;8.20;62.30
66140;DHT22;52945;51.908;8.364;2024-02-23T06:14:04;8.20;62.20
66140;DHT22;52945;51.908;8.364;2024-02-23T06:17:04;8.20;62.00
66140;DHT22;52945;51.908;8.364;2024-02-23T06:20:09;8.20;62.10
66140;DHT22;52945;51.908;8.364;2024-02-23T06:23:10;8.20;62.30
66140;DHT22;52945;51.908;8.364;2024-02-23T06:26:10;8.20;62.00
66140;DHT22;52945;51.908;8.364;2024-02-23T06:29:11;8.20;62.10
66140;DHT22;52945;51.908;8.364;2024-02-23T06:32:13;8.20;62.00
66140;DHT22;52945;51.908;8.364;2024-02-23T06:35:14;8.10;61.90
66140;DHT22;52945;51.908;8.364;2024-02-23T06:38:15;8.20;62.40
66140;DHT22;52945;51.908;8.364;2024-02-23T06:41:16;8.20;62.50
66140;DHT22;52945;51.908;8.364;2024-02-23T06:44:17;8.20;62.40
66140;DHT22;52945;51.908;8.364;2024-02-23T06:47:17;8.10;62.30
66140;DHT22;52945;51.908;8.364;2024-02-23T06:50:18;8.10;62.00
66140;DHT22;52945;51.908;8.364;2024-02-23T06:53:20;8.10;62.10
66140;DHT22;52945;51.908;8.364;2024-02-23T06:56:20;8.20;62.30
66140;DHT22;52945;51.908;8.364;2024-02-23T06:59:21;8.20;62.50
66140;DHT22;52945;51.908;8.364;2024-02-23T07:02:24;8.10;62.20
66140;DHT22;52945;51.908;8.364;2024-02-23T07:05:25;8.10;62.10
66140;DHT22;52945;51.908;8.364;2024-02-23T07:08:26;8.10;62.40
66140;DHT22;52945;51.908;8.364;2024-02-23T07:11:26;8.10;62.50
66140;DHT22;52945;51.908;8.364;2024-02-23T07:14:27;8.10;62.70
66140;DHT22;52945;51.908;8.364;2024-02-23T07:17:28;8.20;62.70
66140;DHT22;52945;51.908;8.364;2024-02-23T07:20:29;8.20;62.50
66140;DHT22;52945;51.908;8.364;2024-02-23T07:23:30;8.10;62.00
66140;DHT22;52945;51.908;8.364;2024-02-23T07:26:32;8.10;62.30
66140;DHT22;52945;51.908;8.364;2024-02-23T07:29:33;8.10;62.60
66140;DHT22;52945;51.908;8.364;2024-02-23T07:32:33;8.10;62.50
66140;DHT22;52945;51.908;8.364;2024-02-23T07:35:34;8.20;62.40
66140;DHT22;52945;51.908;8.364;2024-02-23T07:38:35;8.10;62.00
66140;DHT22;52945;51.908;8.364;2024-02-23T07:41:35;8.20;62.20
66140;DHT22;52945;51.908;8.364;2024-02-23T07:44:36;8.20;61.60
66140;DHT22;52945;51.908;8.364;2024-02-23T07:47:37;8.10;61.80
66140;DHT22;52945;51.908;8.364;2024-02-23T07:50:38;8.20;61.60
66140;DHT22;52945;51.908;8.364;2024-02-23T07:53:39;8.20;61.50
66140;DHT22;52945;51.908;8.364;2024-02-23T07:56:39;8.20;61.20
66140;DHT22;52945;51.908;8.364;2024-02-23T07:59:40;8.20;61.60
66140;DHT22;52945;51.908;8.364;2024-02-23T08:02:41;8.30;61.40
66140;DHT22;52945;51.908;8.364;2024-02-23T08:05:41;8.30;61.30
66140;DHT22;52945;51.908;8.364;2024-02-23T08:08:42;8.30;61.10
66140;DHT22;52945;51.908;8.364;2024-02-23T08:11:43;8.30;61.00
66140;DHT22;52945;51.908;8.364;2024-02-23T08:14:43;8.40;60.80
66140;DHT22;52945;51.908;8.364;2024-02-23T08:17:45;8.30;60.80
66140;DHT22;52945;51.908;8.364;2024-02-23T08:20:47;8.40;60.90
66140;DHT22;52945;51.908;8.364;2024-02-23T08:23:48;8.40;61.00
66140;DHT22;52945;51.908;8.364;2024-02-23T08:26:48;8.50;60.60
66140;DHT22;52945;51.908;8.364;2024-02-23T08:29:49;8.40;60.50
66140;DHT22;52945;51.908;8.364;2024-02-23T08:32:50;8.50;60.60
66140;DHT22;52945;51.908;8.364;2024-02-23T08:35:50;8.60;60.60
66140;DHT22;52945;51.908;8.364;2024-02-23T08:38:51;8.90;60.50
66140;DHT22;52945;51.908;8.364;2024-02-23T08:41:52;9.20;59.10
66140;DHT22;52945;51.908;8.364;2024-02-23T08:44:54;9.40;58.20
66140;DHT22;52945;51.908;8.364;2024-02-23T08:47:55;9.50;58.30
66140;DHT22;52945;51.908;8.364;2024-02-23T08:50:56;9.50;58.20
66140;DHT22;52945;51.908;8.364;2024-02-23T08:53:56;9.50;57.50
66140;DHT22;52945;51.908;8.364;2024-02-23T08:56:57;9.50;58.10
66140;DHT22;52945;51.908;8.364;2024-02-23T08:59:59;9.60;58.20
66140;DHT22;52945;51.908;8.364;2024-02-23T09:03:00;9.60;58.40
66140;DHT22;52945;51.908;8.364;2024-02-23T09:06:00;9.70;57.60
66140;DHT22;52945;51.908;8.364;2024-02-23T09:09:01;9.60;56.60
66140;DHT22;52945;51.908;8.364;2024-02-23T09:12:01;9.60;56.90
66140;DHT22;52945;51.908;8.364;2024-02-23T09:15:02;9.60;57.00
66140;DHT22;52945;51.908;8.364;2024-02-23T09:18:03;9.60;57.40
66140;DHT22;52945;51.908;8.364;2024-02-23T09:21:04;9.50;56.90
66140;DHT22;52945;51.908;8.364;2024-02-23T09:24:05;9.50;57.20
66140;DHT22;52945;51.908;8.364;2024-02-23T09:27:06;9.40;57.10
66140;DHT22;52945;51.908;8.364;2024-02-23T09:30:07;9.40;57.50
66140;DHT22;52945;51.908;8.364;2024-02-23T09:33:08;9.50;58.10
66140;DHT22;52945;51.908;8.364;2024-02-23T09:36:09;9.40;57.80
66140;DHT22;52945;51.908;8.364;2024-02-23T09:39:10;9.40;57.60
66140;DHT22;52945;51.908;8.364;2024-02-23T09:42:10;9.30;57.00
66140;DHT22;52945;51.908;8.364;2024-02-23T09:45:14;9.40;57.20
66140;DHT22;52945;51.908;8.364;2024-02-23T09:48:18;9.40;56.90
66140;DHT22;52945;51.908;8.364;2024-02-23T09:51:19;9.50;57.50
66140;DHT22;52945;51.908;8.364;2024-02-23T09:54:21;9.50;57.40
66140;DHT22;52945;51.908;8.364;2024-02-23T09:57:22;9.40;56.40
66140;DHT22;52945;51.908;8.364;2024-02-23T10:00:23;9.50;57.20
66140;DHT22;52945;51.908;8.364;2024-02-23T10:03:28;9.60;56.90
66140;DHT22;52945;51.908;8.364;2024-02-23T10:06:32;9.50;56.10
66140;DHT22;52945;51.908;8.364;2024-02-23T10:09:32;9.50;56.70
66140;DHT22;52945;51.908;8.364;2024-02-23T10:12:34;9.50;56.50
66140;DHT22;52945;51.908;8.364;2024-02-23T10:15:34;9.50;56.60
66140;DHT22;52945;51.908;8.364;2024-02-23T10:18:38;9.60;55.70
66140;DHT22;52945;51.908;8.364;2024-02-23T10:21:39;9.50;55.60
66140;DHT22;52945;51.908;8.364;2024-02-23T10:24:39;9.60;55.90
66140;DHT22;52945;51.908;8.364;2024-02-23T10:27:42;9.60;55.80
66140;DHT22;52945;51.908;8.364;2024-02-23T10:30:43;9.60;55.80
66140;DHT22;52945;51.908;8.364;2024-02-23T10:33:44;9.50;54.90
66140;DHT22;52945;51.908;8.364;2024-02-23T10:36:46;9.60;55.40
66140;DHT22;52945;51.908;8.364;2024-02-23T10:39:49;9.60;55.70
66140;DHT22;52945;51.908;8.364;2024-02-23T10:42:51;9.60;55.00
66140;DHT22;52945;51.908;8.364;2024-02-23T10:45:55;9.70;55.10
66140;DHT22;52945;51.908;8.364;2024-02-23T10:48:56;9.70;55.30
66140;DHT22;52945;51.908;8.364;2024-02-23T10:51:58;9.70;55.20
66140;DHT22;52945;51.908;8.364;2024-02-23T10:55:00;9.80;55.20
66140;DHT22;52945;51.908;8.364;2024-02-23T10:58:06;9.80;55.10
66140;DHT22;52945;51.908;8.364;2024-02-23T11:01:13;10.10;55.50
66140;DHT22;52945;51.908;8.364;2024-02-23T11:04:18;10.10;54.90
66140;DHT22;52945;51.908;8.364;2024-02-23T11:07:20;10.00;53.70
66140;DHT22;52945;51.908;8.364;2024-02-23T11:10:22;10.10;54.30
66140;DHT22;52945;51.908;8.364;2024-02-23T11:13:35;10.20;54.70
66140;DHT22;52945;51.908;8.364;2024-02-23T11:16:39;10.20;54.30
66140;DHT22;52945;51.908;8.364;2024-02-23T11:19:41;10.30;54.40
66140;DHT22;52945;51.908;8.364;2024-02-23T11:22:41;10.40;54.40
66140;DHT22;52945;51.908;8.364;2024-02-23T11:25:42;10.50;54.00
66140;DHT22;52945;51.908;8.364;2024-02-23T11:28:43;10.50;53.70
66140;DHT22;52945;51.908;8.364;2024-02-23T11:31:46;10.50;53.80
66140;DHT22;52945;51.908;8.364;2024-02-23T11:34:56;10.60;53.90
66140;DHT22;52945;51.908;8.364;2024-02-23T11:37:57;10.50;53.40
66140;DHT22;52945;51.908;8.364;2024-02-23T11:41:02;10.50;53.10
66140;DHT22;52945;51.908;8.364;2024-02-23T11:44:04;10.50;53.50
66140;DHT22;52945;51.908;8.364;2024-02-23T11:47:07;10.60;53.70
66140;DHT22;52945;51.908;8.364;2024-02-23T11:50:11;10.60;53.90
66140;DHT22;52945;51.908;8.364;2024-02-23T11:53:12;10.50;53.90
66140;DHT22;52945;51.908;8.364;2024-02-23T11:56:13;10.50;53.60
66140;DHT22;52945;51.908;8.364;2024-02-23T11:59:14;10.50;54.10
66140;DHT22;52945;51.908;8.364;2024-02-23T12:02:15;10.50;53.90
66140;DHT22;52945;51.908;8.364;2024-02-23T12:05:16;10.50;52.80
66140;DHT22;52945;51.908;8.364;2024-02-23T12:08:17;10.60;53.50
66140;DHT22;52945;51.908;8.364;2024-02-23T12:11:18;10.60;53.80
66140;DHT22;52945;51.908;8.364;2024-02-23T12:14:20;10.60;54.00
66140;DHT22;52945;51.908;8.364;2024-02-23T12:17:21;10.70;53.10
66140;DHT22;52945;51.908;8.364;2024-02-23T12:20:22;10.70;53.60
66140;DHT22;52945;51.908;8.364;2024-02-23T12:23:23;10.70;52.90
66140;DHT22;52945;51.908;8.364;2024-02-23T12:26:24;10.70;52.90
66140;DHT22;52945;51.908;8.364;2024-02-23T12:29:24;10.60;52.50
66140;DHT22;52945;51.908;8.364;2024-02-23T12:32:25;10.70;52.90
66140;DHT22;52945;51.908;8.364;2024-02-23T12:35:27;10.70;52.90
66140;DHT22;52945;51.908;8.364;2024-02-23T12:38:28;10.70;52.60
66140;DHT22;52945;51.908;8.364;2024-02-23T12:41:29;10.70;52.70
66140;DHT22;52945;51.908;8.364;2024-02-23T12:44:30;10.90;52.60
66140;DHT22;52945;51.908;8.364;2024-02-23T12:47:32;11.10;52.80
66140;DHT22;52945;51.908;8.364;2024-02-23T12:50:34;11.20;52.50
66140;DHT22;52945;51.908;8.364;2024-02-23T12:53:39;11.30;52.10
66140;DHT22;52945;51.908;8.364;2024-02-23T12:56:40;11.40;51.20
66140;DHT22;52945;51.908;8.364;2024-02-23T12:59:40;11.30;51.20
66140;DHT22;52945;51.908;8.364;2024-02-23T13:02:41;11.40;51.50
66140;DHT22;52945;51.908;8.364;2024-02-23T13:05:42;11.30;52.20
66140;DHT22;52945;51.908;8.364;2024-02-23T13:08:42;11.40;52.40
66140;DHT22;52945;51.908;8.364;2024-02-23T13:11:43;11.30;52.00
66140;DHT22;52945;51.908;8.364;2024-02-23T13:14:46;11.40;52.60
66140;DHT22;52945;51.908;8.364;2024-02-23T13:17:46;11.20;52.20
66140;DHT22;52945;51.908;8.364;2024-02-23T13:20:48;11.30;52.20
66140;DHT22;52945;51.908;8.364;2024-02-23T13:23:49;11.30;51.60
66140;DHT22;52945;51.908;8.364;2024-02-23T13:26:49;11.30;51.60
66140;DHT22;52945;51.908;8.364;2024-02-23T13:29:50;11.20;51.50
66140;DHT22;52945;51.908;8.364;2024-02-23T13:32:50;11.20;51.90
66140;DHT22;52945;51.908;8.364;2024-02-23T13:35:51;11.20;51.60
66140;DHT22;52945;51.908;8.364;2024-02-23T13:38:52;11.20;51.70
66140;DHT22;52945;51.908;8.364;2024-02-23T13:41:53;11.10;51.70
66140;DHT22;52945;51.908;8.364;2024-02-23T13:44:53;11.20;52.20
66140;DHT22;52945;51.908;8.364;2024-02-23T13:47:57;11.10;52.00
66140;DHT22;52945;51.908;8.364;2024-02-23T13:50:59;11.00;52.40
66140;DHT22;52945;51.908;8.364;2024-02-23T13:54:03;11.10;53.60
66140;DHT22;52945;51.908;8.364;2024-02-23T13:57:04;11.10;53.40
66140;DHT22;52945;51.908;8.364;2024-02-23T14:00:05;11.10;53.60
66140;DHT22;52945;51.908;8.364;2024-02-23T14:03:08;11.10;54.00
66140;DHT22;52945;51.908;8.364;2024-02-23T14:06:11;10.90;53.50
66140;DHT22;52945;51.908;8.364;2024-02-23T14:09:12;11.00;54.10
66140;DHT22;52945;51.908;8.364;2024-02-23T14:12:13;10.90;53.40
66140;DHT22;52945;51.908;8.364;2024-02-23T14:15:13;11.00;54.00
66140;DHT22;52945;51.908;8.364;2024-02-23T14:18:14;11.10;53.70
66140;DHT22;52945;51.908;8.364;2024-02-23T14:21:15;11.00;53.50
66140;DHT22;52945;51.908;8.364;2024-02-23T14:24:16;11.10;53.00
66140;DHT22;52945;51.908;8.364;2024-02-23T14:27:17;11.00;52.60
66140;DHT22;52945;51.908;8.364;2024-02-23T14:30:17;11.10;52.50
66140;DHT22;52945;51.908;8.364;2024-02-23T14:33:18;11.10;52.50
66140;DHT22;52945;51.908;8.364;2024-02-23T14:36:19;11.00;52.30
66140;DHT22;52945;51.908;8.364;2024-02-23T14:39:21;11.10;53.10
66140;DHT22;52945;51.908;8.364;2024-02-23T14:42:21;11.00;53.30
66140;DHT22;52945;51.908;8.364;2024-02-23T14:45:22;11.00;53.90
66140;DHT22;52945;51.908;8.364;2024-02-23T14:48:23;11.00;54.20
66140;DHT22;52945;51.908;8.364;2024-02-23T14:51:25;11.00;54.50
66140;DHT22;52945;51.908;8.364;2024-02-23T14:54:25;11.00;56.50
66140;DHT22;52945;51.908;8.364;2024-02-23T14:57:26;10.90;56.90
66140;DHT22;52945;51.908;8.364;2024-02-23T15:00:26;10.90;56.90
66140;DHT22;52945;51.908;8.364;2024-02-23T15:03:30;10.90;57.20
66140;DHT22;52945;51.908;8.364;2024-02-23T15:06:33;10.90;57.90
66140;DHT22;52945;51.908;8.364;2024-02-23T15:09:33;10.90;58.50
66140;DHT22;52945;51.908;8.364;2024-02-23T15:12:35;11.00;58.80
66140;DHT22;52945;51.908;8.364;2024-02-23T15:15:36;10.80;58.60
66140;DHT22;52945;51.908;8.364;2024-02-23T15:18:40;10.70;57.90
66140;DHT22;52945;51.908;8.364;2024-02-23T15:21:41;10.70;58.80
66140;DHT22;52945;51.908;8.364;2024-02-23T15:24:43;10.60;58.40
66140;DHT22;52945;51.908;8.364;2024-02-23T15:27:46;10.60;58.60
66140;DHT22;52945;51.908;8.364;2024-02-23T15:30:47;10.60;58.70
66140;DHT22;52945;51.908;8.364;2024-02-23T15:33:48;10.60;59.40
66140;DHT22;52945;51.908;8.364;2024-02-23T15:36:48;10.70;60.90
66140;DHT22;52945;51.908;8.364;2024-02-23T15:39:49;10.70;61.10
66140;DHT22;52945;51.908;8.364;2024-02-23T15:42:50;10.70;60.70
66140;DHT22;52945;51.908;8.364;2024-02-23T15:45:51;10.60;59.30
66140;DHT22;52945;51.908;8.364;2024-02-23T15:48:51;10.60;59.10
66140;DHT22;52945;51.908;8.364;2024-02-23T15:51:52;10.60;59.40
66140;DHT22;52945;51.908;8.364;2024-02-23T15:54:53;10.50;58.30
66140;DHT22;52945;51.908;8.364;2024-02-23T15:57:53;10.60;58.60
66140;DHT22;52945;51.908;8.364;2024-02-23T16:00:54;10.50;58.30
66140;DHT22;52945;51.908;8.364;2024-02-23T16:03:55;10.60;58.50
66140;DHT22;52945;51.908;8.364;2024-02-23T16:06:56;10.50;58.20
66140;DHT22;52945;51.908;8.364;2024-02-23T16:09:57;10.60;58.60
66140;DHT22;52945;51.908;8.364;2024-02-23T16:12:58;10.50;57.70
66140;DHT22;52945;51.908;8.364;2024-02-23T16:15:59;10.60;58.20
66140;DHT22;52945;51.908;8.364;2024-02-23T16:19:00;10.60;57.80
66140;DHT22;52945;51.908;8.364;2024-02-23T16:22:03;10.60;57.30
66140;DHT22;52945;51.908;8.364;2024-02-23T16:25:04;10.60;57.40
66140;DHT22;52945;51.908;8.364;2024-02-23T16:28:05;10.60;57.40
66140;DHT22;52945;51.908;8.364;2024-02-23T16:31:06;10.70;57.90
66140;DHT22;52945;51.908;8.364;2024-02-23T16:34:07;10.60;57.50
66140;DHT22;52945;51.908;8.364;2024-02-23T16:37:08;10.70;58.00
66140;DHT22;52945;51.908;8.364;2024-02-23T16:40:22;10.70;57.00
66140;DHT22;52945;51.908;8.364;2024-02-23T16:43:28;10.60;56.80
66140;DHT22;52945;51.908;8.364;2024-02-23T16:46:28;10.70;57.50
66140;DHT22;52945;51.908;8.364;2024-02-23T16:49:29;10.60;57.20
66140;DHT22;52945;51.908;8.364;2024-02-23T16:52:29;10.60;57.50
66140;DHT22;52945;51.908;8.364;2024-02-23T16:55:30;10.50;57.30
66140;DHT22;52945;51.908;8.364;2024-02-23T16:58:30;10.50;57.50
66140;DHT22;52945;51.908;8.364;2024-02-23T17:01:36;10.40;57.70
66140;DHT22;52945;51.908;8.364;2024-02-23T17:04:36;10.40;58.00
66140;DHT22;52945;51.908;8.364;2024-02-23T17:07:37;10.50;58.20
66140;DHT22;52945;51.908;8.364;2024-02-23T17:10:37;10.40;58.10
66140;DHT22;52945;51.908;8.364;2024-02-23T17:13:38;10.40;58.40
66140;DHT22;52945;51.908;8.364;2024-02-23T17:16:39;10.40;58.10
66140;DHT22;52945;51.908;8.364;2024-02-23T17:19:41;10.40;58.20
66140;DHT22;52945;51.908;8.364;2024-02-23T17:22:43;10.30;58.70
66140;DHT22;52945;51.908;8.364;2024-02-23T17:25:44;10.30;58.70
66140;DHT22;52945;51.908;8.364;2024-02-23T17:28:47;10.30;59.00
66140;DHT22;52945;51.908;8.364;2024-02-23T17:31:47;10.30;59.00
66140;DHT22;52945;51.908;8.364;2024-02-23T17:34:48;10.40;59.10
66140;DHT22;52945;51.908;8.364;2024-02-23T17:37:49;10.30;59.00
66140;DHT22;52945;51.908;8.364;2024-02-23T17:40:50;10.30;59.10
66140;DHT22;52945;51.908;8.364;2024-02-23T17:43:53;10.30;59.30
66140;DHT22;52945;51.908;8.364;2024-02-23T17:46:54;10.30;59.00
66140;DHT22;52945;51.908;8.364;2024-02-23T17:49:56;10.20;58.80
66140;DHT22;52945;51.908;8.364;2024-02-23T17:52:56;10.20;58.80
66140;DHT22;52945;51.908;8.364;2024-02-23T17:55:57;10.20;59.00
66140;DHT22;52945;51.908;8.364;2024-02-23T17:58:58;10.20;59.00
66140;DHT22;52945;51.908;8.364;2024-02-23T18:01:58;10.20;58.90
66140;DHT22;52945;51.908;8.364;2024-02-23T18:04:59;10.20;59.20
66140;DHT22;52945;51.908;8.364;2024-02-23T18:08:01;10.20;59.20
66140;DHT22;52945;51.908;8.364;2024-02-23T18:11:02;10.20;59.10
66140;DHT22;52945;51.908;8.364;2024-02-23T18:14:02;10.10;59.10
66140;DHT22;52945;51.908;8.364;2024-02-23T18:17:03;10.00;58.80
66140;DHT22;52945;51.908;8.364;2024-02-23T18:20:06;9.90;58.00
66140;DHT22;52945;51.908;8.364;2024-02-23T18:23:08;9.90;58.00
66140;DHT22;52945;51.908;8.364;2024-02-23T18:26:11;9.90;58.30
66140;DHT22;52945;51.908;8.364;2024-02-23T18:29:12;9.80;57.80
66140;DHT22;52945;51.908;8.364;2024-02-23T18:32:13;9.80;57.60
66140;DHT22;52945;51.908;8.364;2024-02-23T18:35:14;9.80;57.70
66140;DHT22;52945;51.908;8.364;2024-02-23T18:38:15;9.70;57.50
66140;DHT22;52945;51.908;8.364;2024-02-23T18:41:16;9.70;57.90
66140;DHT22;52945;51.908;8.364;2024-02-23T18:44:16;9.70;57.60
66140;DHT22;52945;51.908;8.364;2024-02-23T18:47:17;9.70;57.30
66140;DHT22;52945;51.908;8.364;2024-02-23T18:50:17;9.70;58.00
66140;DHT22;52945;51.908;8.364;2024-02-23T18:53:18;9.70;57.80
66140;DHT22;52945;51.908;8.364;2024-02-23T18:56:19;9.80;57.70
66140;DHT22;52945;51.908;8.364;2024-02-23T18:59:20;9.80;57.90
66140;DHT22;52945;51.908;8.364;2024-02-23T19:02:21;9.70;58.00
66140;DHT22;52945;51.908;8.364;2024-02-23T19:05:22;9.70;57.50
66140;DHT22;52945;51.908;8.364;2024-02-23T19:08:22;9.70;57.90
66140;DHT22;52945;51.908;8.364;2024-02-23T19:11:23;9.60;58.00
66140;DHT22;52945;51.908;8.364;2024-02-23T19:14:23;9.60;57.70
66140;DHT22;52945;51.908;8.364;2024-02-23T19:17:24;9.70;58.00